Sensation — C6FM8 — position and weather

sailwx.info

Track history (hours):
 
Tides and Currents Weather Stations Pressure Air Temp Water Temp Dewpoint Dewpoint Depression Visibility Wind Speed Wind Dir Waves Ship Positions

Sensation

Last reported at 2017-Feb-09 22:21 UTC. Time now 2017-Feb-22 04:25 UTC.
Position N 26°12' W 079°26'.
Warning: this ship's position is 12 days out of date.

Type: Ship. MMSI: 309697000.

Date/timePositionNaut miles runAvg speedWind from/ knotsBaromVisibWave heightAir tempDewpointWater temp
2017-Feb-09 22:21N 26°12' W 079°26'1316.4
2017-Feb-09 21:33N 26°03' W 079°36'2019.5
2017-Feb-09 20:33N 25°52' W 079°54'1414.4
2017-Feb-09 19:33N 25°46' W 080°09'1 1.2
2017-Feb-09 18:31N 25°47' W 080°10'0 0.0
2017-Feb-09 17:31N 25°47' W 080°10'0 0.0
2017-Feb-09 16:31N 25°47' W 080°10'0 0.0
2017-Feb-09 15:31N 25°47' W 080°10'0 0.0
2017-Feb-09 14:33N 25°47' W 080°10'0 0.0
2017-Feb-09 13:33N 25°47' W 080°10'0 0.0
2017-Feb-09 12:32N 25°47' W 080°10'0 0.0
2017-Feb-09 11:32N 25°47' W 080°10'2 1.7
2017-Feb-09 10:33N 25°46' W 080°08'1010.0
2017-Feb-09 09:33N 25°43' W 079°58'1514.9
2017-Feb-09 08:34N 25°28' W 079°56'1717.3
2017-Feb-09 07:33N 25°11' W 079°59'1716.8
2017-Feb-09 06:34N 24°54' W 080°01'1717.2
2017-Feb-09 05:34N 24°42' W 080°14'1918.1
2017-Feb-09 04:32N 24°29' W 080°29'  
2017-Feb-06 12:00N 18°48' W 076°30'43512.2 080 / 171015.010.8 24.022.625.7
2017-Feb-05 00:18N 25°21' W 079°50'1215.4
2017-Feb-04 23:33N 25°32' W 079°54'1414.4
2017-Feb-04 22:33N 25°45' W 080°02'8 8.2
2017-Feb-04 21:33N 25°47' W 080°11'1 0.6
2017-Feb-04 20:33N 25°47' W 080°10'0 0.0
2017-Feb-04 19:33N 25°47' W 080°10'0 0.0
2017-Feb-04 18:32N 25°47' W 080°10'0 0.0
2017-Feb-04 17:32N 25°47' W 080°10'0 0.0
2017-Feb-04 16:31N 25°47' W 080°10'0 0.0
2017-Feb-04 15:31N 25°47' W 080°10'0 0.0
2017-Feb-04 14:31N 25°47' W 080°10'0 0.0
2017-Feb-04 13:33N 25°47' W 080°10'0 0.0
2017-Feb-04 12:33N 25°47' W 080°10'1 1.4
2017-Feb-04 11:33N 25°46' W 080°09'0 0.0
2017-Feb-04 10:32N 25°46' W 080°09'2 1.6
2017-Feb-04 09:33N 25°46' W 080°07'9 9.4
2017-Feb-04 08:33N 25°50' W 079°58'1413.5
2017-Feb-04 07:33N 25°56' W 079°45'1616.5
2017-Feb-04 06:33N 26°07' W 079°30'  
2017-Jan-31 12:00N 25°30' W 076°06'18415.7 020 / 231020.010.8 20.015.323.0
2017-Jan-31 00:17N 26°07' W 079°27'1317.5
2017-Jan-30 23:33N 26°00' W 079°39'1717.0
2017-Jan-30 22:33N 25°52' W 079°55'  
Track history (hours):
 
Tides and Currents Weather Stations Pressure Air Temp Water Temp Dewpoint Dewpoint Depression Visibility Wind Speed Wind Dir Waves Ship Positions

Sensation

Last reported at 2017-Feb-09 22:21 UTC. Time now 2017-Feb-22 04:25 UTC.
Position N 26°12' W 079°26'.
Warning: this ship's position is 12 days out of date.

Type: Ship. MMSI: 309697000.

Date/timePositionNaut miles runAvg speedWind from/ knotsBaromVisibWave heightAir tempDewpointWater temp
2017-Feb-09 22:21N 26°12' W 079°26'1316.4
2017-Feb-09 21:33N 26°03' W 079°36'2019.5
2017-Feb-09 20:33N 25°52' W 079°54'1414.4
2017-Feb-09 19:33N 25°46' W 080°09'1 1.2
2017-Feb-09 18:31N 25°47' W 080°10'0 0.0
2017-Feb-09 17:31N 25°47' W 080°10'0 0.0
2017-Feb-09 16:31N 25°47' W 080°10'0 0.0
2017-Feb-09 15:31N 25°47' W 080°10'0 0.0
2017-Feb-09 14:33N 25°47' W 080°10'0 0.0
2017-Feb-09 13:33N 25°47' W 080°10'0 0.0
2017-Feb-09 12:32N 25°47' W 080°10'0 0.0
2017-Feb-09 11:32N 25°47' W 080°10'2 1.7
2017-Feb-09 10:33N 25°46' W 080°08'1010.0
2017-Feb-09 09:33N 25°43' W 079°58'1514.9
2017-Feb-09 08:34N 25°28' W 079°56'1717.3
2017-Feb-09 07:33N 25°11' W 079°59'1716.8
2017-Feb-09 06:34N 24°54' W 080°01'1717.2
2017-Feb-09 05:34N 24°42' W 080°14'1918.1
2017-Feb-09 04:32N 24°29' W 080°29'  
2017-Feb-06 12:00N 18°48' W 076°30'43512.2 080 / 171015.010.8 24.022.625.7
2017-Feb-05 00:18N 25°21' W 079°50'1215.4
2017-Feb-04 23:33N 25°32' W 079°54'1414.4
2017-Feb-04 22:33N 25°45' W 080°02'8 8.2
2017-Feb-04 21:33N 25°47' W 080°11'1 0.6
2017-Feb-04 20:33N 25°47' W 080°10'0 0.0
2017-Feb-04 19:33N 25°47' W 080°10'0 0.0
2017-Feb-04 18:32N 25°47' W 080°10'0 0.0
2017-Feb-04 17:32N 25°47' W 080°10'0 0.0
2017-Feb-04 16:31N 25°47' W 080°10'0 0.0
2017-Feb-04 15:31N 25°47' W 080°10'0 0.0
2017-Feb-04 14:31N 25°47' W 080°10'0 0.0
2017-Feb-04 13:33N 25°47' W 080°10'0 0.0
2017-Feb-04 12:33N 25°47' W 080°10'1 1.4
2017-Feb-04 11:33N 25°46' W 080°09'0 0.0
2017-Feb-04 10:32N 25°46' W 080°09'2 1.6
2017-Feb-04 09:33N 25°46' W 080°07'9 9.4
2017-Feb-04 08:33N 25°50' W 079°58'1413.5
2017-Feb-04 07:33N 25°56' W 079°45'1616.5
2017-Feb-04 06:33N 26°07' W 079°30'  
2017-Jan-31 12:00N 25°30' W 076°06'18415.7 020 / 231020.010.8 20.015.323.0
2017-Jan-31 00:17N 26°07' W 079°27'1317.5
2017-Jan-30 23:33N 26°00' W 079°39'1717.0
2017-Jan-30 22:33N 25°52' W 079°55'  

Dump ship's entire track history